Time;durP1;ratioP1;P1;durP2;ratioP2;P2;SDS_P1;SDS_P2;PMS_P1;PMS_P2;Temp;Humidity;BMP_temperature;BMP_pressure;BME280_temperature;BME280_humidity;BME280_pressure;Samples;Min_cycle;Max_cycle;Signal;HPM_P1;HPM_P2
2022/07/19 00:00:18;;;;;;;6.50;2.05;;;20.50;64.00;;;;;;5054353;28;20182;-67
2022/07/19 00:02:44;;;;;;;8.68;1.98;;;20.40;63.70;;;;;;5054529;28;20188;-67
2022/07/19 00:05:11;;;;;;;5.68;1.70;;;20.40;63.90;;;;;;5054673;28;20182;-65
2022/07/19 00:07:37;;;;;;;4.68;1.52;;;20.40;64.30;;;;;;5054509;28;20193;-67
2022/07/19 00:10:06;;;;;;;4.72;1.95;;;20.40;64.70;;;;;;5054544;28;20189;-67
2022/07/19 00:12:31;;;;;;;2.35;1.67;;;20.40;64.90;;;;;;5054667;28;20192;-67
2022/07/19 00:14:57;;;;;;;1.90;1.70;;;20.40;65.50;;;;;;5052699;28;20182;-67
2022/07/19 00:17:23;;;;;;;2.22;1.55;;;20.40;65.30;;;;;;5054636;28;20250;-66
2022/07/19 00:19:48;;;;;;;3.67;2.30;;;20.40;65.50;;;;;;5054277;28;20216;-67
2022/07/19 00:22:14;;;;;;;4.65;1.90;;;20.40;65.70;;;;;;5054127;28;20225;-66
2022/07/19 00:24:40;;;;;;;4.38;1.85;;;20.30;65.60;;;;;;5053182;28;20708;-67
2022/07/19 00:27:05;;;;;;;5.80;2.10;;;20.30;65.60;;;;;;5054015;28;20189;-67
2022/07/19 00:29:31;;;;;;;6.80;2.10;;;20.30;65.80;;;;;;5052847;28;20181;-68
2022/07/19 00:31:56;;;;;;;6.50;1.60;;;20.30;65.70;;;;;;5052408;28;20174;-68
2022/07/19 00:34:22;;;;;;;4.13;2.05;;;20.20;65.50;;;;;;5054275;28;20185;-67
2022/07/19 00:36:47;;;;;;;6.97;1.95;;;20.20;65.60;;;;;;5054218;28;20210;-68
2022/07/19 00:39:13;;;;;;;6.78;2.03;;;20.10;65.90;;;;;;5033230;28;20177;-67
2022/07/19 00:41:40;;;;;;;6.43;2.35;;;20.10;66.20;;;;;;5052528;28;20193;-68
2022/07/19 00:44:06;;;;;;;3.92;2.13;;;20.10;66.20;;;;;;5054116;28;20193;-67
2022/07/19 00:46:32;;;;;;;5.15;1.98;;;20.10;66.60;;;;;;5053965;28;20196;-68
2022/07/19 00:48:58;;;;;;;3.15;2.35;;;20.00;66.60;;;;;;5053584;28;20216;-68
2022/07/19 00:51:23;;;;;;;6.72;2.35;;;20.00;66.80;;;;;;5053912;28;20193;-68
2022/07/19 00:53:51;;;;;;;6.78;2.08;;;20.00;66.90;;;;;;5053602;28;20534;-67
2022/07/19 00:56:17;;;;;;;4.25;2.05;;;20.00;67.00;;;;;;5053462;28;20711;-67
2022/07/19 00:58:43;;;;;;;6.55;2.00;;;20.00;66.80;;;;;;5052891;28;20186;-67
2022/07/19 01:01:09;;;;;;;1.83;1.50;;;20.00;66.70;;;;;;5053504;28;20181;-68
2022/07/19 01:03:38;;;;;;;3.78;1.88;;;19.90;66.60;;;;;;5052441;28;20635;-67
2022/07/19 01:06:04;;;;;;;4.18;2.42;;;19.90;66.70;;;;;;5053603;28;20177;-67
2022/07/19 01:08:29;;;;;;;2.92;1.83;;;19.90;67.30;;;;;;5052100;28;20181;-68
2022/07/19 01:10:55;;;;;;;4.93;2.00;;;19.80;67.20;;;;;;5053295;28;20177;-68
2022/07/19 01:13:20;;;;;;;6.47;1.65;;;19.70;67.30;;;;;;5053381;28;20177;-67
2022/07/19 01:15:46;;;;;;;4.60;1.80;;;19.70;67.60;;;;;;5053502;28;20224;-68
2022/07/19 01:18:11;;;;;;;6.25;2.22;;;19.70;67.40;;;;;;5053345;28;20193;-67
2022/07/19 01:20:37;;;;;;;2.92;2.10;;;19.70;67.40;;;;;;5053157;28;20186;-67
2022/07/19 01:23:03;;;;;;;3.53;1.90;;;19.70;67.90;;;;;;5053192;28;20198;-68
2022/07/19 01:25:31;;;;;;;4.68;1.90;;;19.70;68.50;;;;;;5053238;28;20511;-68
2022/07/19 01:27:56;;;;;;;5.65;2.13;;;19.70;68.10;;;;;;5053187;28;20185;-67
2022/07/19 01:30:25;;;;;;;7.18;1.85;;;19.70;68.30;;;;;;5051929;28;20184;-67
2022/07/19 01:32:51;;;;;;;6.05;1.88;;;19.70;68.20;;;;;;5052859;28;20193;-67
2022/07/19 01:35:17;;;;;;;2.08;1.55;;;19.70;68.10;;;;;;5053042;28;20557;-67
2022/07/19 01:37:43;;;;;;;3.13;1.77;;;19.70;68.10;;;;;;5052845;28;20181;-67
2022/07/19 01:40:11;;;;;;;2.72;1.65;;;19.70;68.00;;;;;;5053209;28;20196;-67
2022/07/19 01:42:37;;;;;;;3.75;1.75;;;19.70;68.10;;;;;;5050797;28;20645;-67
2022/07/19 01:45:04;;;;;;;4.57;1.90;;;19.60;68.30;;;;;;5053060;28;20208;-67
2022/07/19 01:47:29;;;;;;;3.42;2.00;;;19.60;68.50;;;;;;5051802;28;20293;-68
2022/07/19 01:49:55;;;;;;;2.85;1.90;;;19.60;68.40;;;;;;5050124;28;20730;-67
2022/07/19 01:52:21;;;;;;;3.38;2.10;;;19.50;68.60;;;;;;5049174;28;20186;-67
2022/07/19 01:54:46;;;;;;;2.75;2.42;;;19.50;68.70;;;;;;5051596;28;20547;-68
2022/07/19 01:57:12;;;;;;;2.88;2.00;;;19.50;68.80;;;;;;5052360;28;20217;-67
2022/07/19 01:59:38;;;;;;;5.78;2.05;;;19.40;69.20;;;;;;5051989;28;20187;-67
2022/07/19 02:02:04;;;;;;;2.22;1.80;;;19.40;70.30;;;;;;5052244;28;20244;-66
2022/07/19 02:04:30;;;;;;;3.35;1.67;;;19.40;70.00;;;;;;5052449;28;20174;-67
2022/07/19 02:06:55;;;;;;;5.07;2.00;;;19.40;69.70;;;;;;5052529;28;20192;-67
2022/07/19 02:09:21;;;;;;;3.35;1.70;;;19.30;69.40;;;;;;5052246;28;20174;-67
2022/07/19 02:11:47;;;;;;;5.35;2.28;;;19.30;69.80;;;;;;5052094;28;20185;-66
2022/07/19 02:14:12;;;;;;;3.95;1.92;;;19.20;69.70;;;;;;5052373;28;20178;-67
2022/07/19 02:16:39;;;;;;;5.65;2.20;;;19.10;69.60;;;;;;5052228;28;20450;-67
2022/07/19 02:19:05;;;;;;;4.93;1.98;;;19.10;69.80;;;;;;5052501;28;20189;-67
2022/07/19 02:21:32;;;;;;;3.78;1.85;;;19.10;70.00;;;;;;5070705;28;20237;-68
2022/07/19 02:23:58;;;;;;;3.15;1.90;;;19.00;70.10;;;;;;5067880;28;20178;-68
2022/07/19 02:26:24;;;;;;;6.03;1.80;;;18.90;70.20;;;;;;5053223;28;20185;-67
2022/07/19 02:28:50;;;;;;;4.22;2.70;;;18.90;70.60;;;;;;5052820;28;20172;-67
2022/07/19 02:31:15;;;;;;;4.07;1.73;;;18.90;70.80;;;;;;5052554;28;20240;-67
2022/07/19 02:33:41;;;;;;;5.90;2.97;;;18.80;71.10;;;;;;5052520;28;20181;-67
2022/07/19 02:36:06;;;;;;;4.22;2.05;;;18.80;71.40;;;;;;5051094;28;20225;-66
2022/07/19 02:38:32;;;;;;;6.00;2.10;;;18.80;71.50;;;;;;5052310;28;20683;-67
2022/07/19 02:40:58;;;;;;;4.32;1.80;;;18.80;71.70;;;;;;5052534;28;20177;-67
2022/07/19 02:43:24;;;;;;;4.35;2.22;;;18.70;71.80;;;;;;5052245;28;20181;-67
2022/07/19 02:45:49;;;;;;;2.92;1.90;;;18.70;72.30;;;;;;5051727;28;20192;-67
2022/07/19 02:48:15;;;;;;;4.57;2.15;;;18.70;72.60;;;;;;5051840;28;20185;-67
2022/07/19 02:50:41;;;;;;;2.08;1.88;;;18.60;73.00;;;;;;5051985;28;20674;-67
2022/07/19 02:53:06;;;;;;;3.00;2.25;;;18.60;73.20;;;;;;5051433;28;20687;-67
2022/07/19 02:55:32;;;;;;;2.65;1.90;;;18.50;73.60;;;;;;5050265;28;20233;-67
2022/07/19 02:57:58;;;;;;;3.08;2.03;;;18.40;74.00;;;;;;5051140;28;20181;-67
2022/07/19 03:00:23;;;;;;;2.35;1.80;;;18.40;74.40;;;;;;5051408;28;20684;-67
2022/07/19 03:02:49;;;;;;;3.20;2.03;;;18.30;75.00;;;;;;5051449;28;20177;-67
2022/07/19 03:05:14;;;;;;;4.55;2.15;;;18.30;75.20;;;;;;5051614;28;20227;-67
2022/07/19 03:07:40;;;;;;;3.38;1.92;;;18.20;75.80;;;;;;5051490;28;20185;-67
2022/07/19 03:10:06;;;;;;;3.10;1.80;;;18.20;76.30;;;;;;5051251;28;20219;-66
2022/07/19 03:12:31;;;;;;;3.60;2.22;;;18.10;76.80;;;;;;5051340;28;20645;-67
2022/07/19 03:14:57;;;;;;;3.55;2.20;;;18.10;78.20;;;;;;5050581;28;20193;-67
2022/07/19 03:17:23;;;;;;;2.05;1.83;;;18.10;78.00;;;;;;5047701;28;20181;-67
2022/07/19 03:19:48;;;;;;;4.10;2.25;;;18.00;78.10;;;;;;5051337;28;20180;-67
2022/07/19 03:22:14;;;;;;;3.53;2.28;;;18.00;78.70;;;;;;5050856;28;20228;-67
2022/07/19 03:24:39;;;;;;;6.47;1.80;;;17.90;79.10;;;;;;5051274;28;20209;-67
2022/07/19 03:27:05;;;;;;;8.32;1.85;;;17.90;79.50;;;;;;5050958;28;20182;-67
2022/07/19 03:29:30;;;;;;;2.97;2.00;;;17.90;80.00;;;;;;5051650;28;20184;-67
2022/07/19 03:31:56;;;;;;;2.72;1.90;;;17.90;80.20;;;;;;5050668;28;20188;-67
2022/07/19 03:34:22;;;;;;;4.90;1.92;;;17.90;80.50;;;;;;5051156;28;20239;-67
2022/07/19 03:36:48;;;;;;;3.67;1.95;;;17.80;80.70;;;;;;5051043;28;20666;-68
2022/07/19 03:39:13;;;;;;;3.65;1.88;;;17.80;81.10;;;;;;5050933;28;20185;-67
2022/07/19 03:41:39;;;;;;;2.63;2.10;;;17.80;81.60;;;;;;5051193;28;20197;-67
2022/07/19 03:44:04;;;;;;;3.67;2.03;;;17.70;82.00;;;;;;5051013;28;20261;-67
2022/07/19 03:46:30;;;;;;;5.05;2.00;;;17.70;82.60;;;;;;5050285;28;20182;-66
2022/07/19 03:48:56;;;;;;;2.45;2.13;;;17.60;83.10;;;;;;5050803;28;20220;-67
2022/07/19 03:51:22;;;;;;;4.00;1.98;;;17.60;83.50;;;;;;5050669;28;20169;-67
2022/07/19 03:53:48;;;;;;;6.90;2.47;;;17.60;84.00;;;;;;5051185;28;20196;-67
2022/07/19 03:56:14;;;;;;;6.47;2.33;;;17.60;84.50;;;;;;5050767;28;20217;-67
2022/07/19 03:58:40;;;;;;;4.63;2.10;;;17.60;85.00;;;;;;5050374;28;20174;-67
2022/07/19 04:01:06;;;;;;;2.05;1.85;;;17.60;85.40;;;;;;5051079;28;20193;-67
2022/07/19 04:03:37;;;;;;;4.80;2.20;;;17.60;86.00;;;;;;5051000;28;20360;-67
2022/07/19 04:06:04;;;;;;;3.63;2.03;;;17.60;86.30;;;;;;5050726;28;20670;-67
2022/07/19 04:08:29;;;;;;;5.22;2.03;;;17.60;86.60;;;;;;5050017;28;20231;-70
2022/07/19 04:10:55;;;;;;;5.03;1.90;;;17.60;86.90;;;;;;5050623;28;20209;-69
2022/07/19 04:13:20;;;;;;;3.95;2.08;;;17.60;87.40;;;;;;5050922;28;20224;-66
2022/07/19 04:15:46;;;;;;;4.18;2.30;;;17.50;87.80;;;;;;5050574;28;20706;-65
2022/07/19 04:18:11;;;;;;;9.60;2.20;;;17.50;88.30;;;;;;5050809;28;20184;-65
2022/07/19 04:20:37;;;;;;;5.90;2.50;;;17.50;88.50;;;;;;5050400;28;20208;-64
2022/07/19 04:23:02;;;;;;;4.22;2.20;;;17.60;88.80;;;;;;5051151;28;20508;-64
2022/07/19 04:25:28;;;;;;;2.90;2.30;;;17.60;88.90;;;;;;5054176;28;20232;-68
2022/07/19 04:27:54;;;;;;;3.03;2.45;;;17.60;89.10;;;;;;5054425;28;20260;-68
2022/07/19 04:30:19;;;;;;;3.40;2.30;;;17.70;89.20;;;;;;5053721;28;20181;-67
2022/07/19 04:32:45;;;;;;;9.35;2.08;;;17.70;89.30;;;;;;5053979;28;20715;-68
2022/07/19 04:35:10;;;;;;;5.18;2.22;;;17.80;89.40;;;;;;5053732;28;20187;-65
2022/07/19 04:37:36;;;;;;;3.22;2.38;;;18.00;89.20;;;;;;5053433;28;20247;-65
2022/07/19 04:40:02;;;;;;;5.70;2.22;;;18.20;88.60;;;;;;5053902;28;20182;-65
2022/07/19 04:42:27;;;;;;;4.03;2.25;;;18.50;87.40;;;;;;5053571;28;20276;-64
2022/07/19 04:44:53;;;;;;;4.82;2.30;;;18.90;86.60;;;;;;5054050;28;20238;-63
2022/07/19 04:47:18;;;;;;;4.13;2.03;;;19.20;85.20;;;;;;5053306;28;20166;-65
2022/07/19 04:49:44;;;;;;;6.43;2.60;;;19.70;83.50;;;;;;5053879;28;20193;-66
2022/07/19 04:52:09;;;;;;;8.15;3.55;;;20.10;81.60;;;;;;5053486;28;20652;-68
2022/07/19 04:54:35;;;;;;;5.43;3.72;;;20.60;79.70;;;;;;5053856;28;20213;-67
2022/07/19 04:57:00;;;;;;;7.18;3.75;;;21.00;78.10;;;;;;5053779;28;20312;-67
2022/07/19 04:59:26;;;;;;;3.85;2.38;;;21.40;76.40;;;;;;5051952;28;20231;-74
2022/07/19 05:01:51;;;;;;;6.50;3.10;;;21.80;74.40;;;;;;5053158;28;20584;-75
2022/07/19 05:04:17;;;;;;;3.58;2.30;;;22.20;73.20;;;;;;5053680;28;20177;-72
2022/07/19 05:06:44;;;;;;;4.03;2.40;;;22.50;71.90;;;;;;5052274;28;20254;-69
2022/07/19 05:09:10;;;;;;;6.45;2.15;;;22.90;70.80;;;;;;5053234;28;20177;-71
2022/07/19 05:11:35;;;;;;;4.07;2.83;;;23.20;69.80;;;;;;5053227;28;20185;-71
2022/07/19 05:14:01;;;;;;;4.47;2.65;;;23.50;68.70;;;;;;5053660;28;20184;-73
2022/07/19 05:16:26;;;;;;;4.13;2.10;;;23.80;67.60;;;;;;5053103;28;20648;-68
2022/07/19 05:18:52;;;;;;;4.25;2.30;;;24.10;66.80;;;;;;5053542;28;20188;-67
2022/07/19 05:21:17;;;;;;;5.70;2.47;;;24.40;66.20;;;;;;5054007;28;20695;-66
2022/07/19 05:23:43;;;;;;;5.90;2.55;;;24.80;65.30;;;;;;5052987;28;20181;-67
2022/07/19 05:26:08;;;;;;;4.38;2.28;;;25.20;64.10;;;;;;5053321;28;20170;-67
2022/07/19 05:28:34;;;;;;;3.90;2.30;;;25.60;63.10;;;;;;5054168;28;20268;-67
2022/07/19 05:30:59;;;;;;;4.03;2.30;;;26.00;62.00;;;;;;5052774;28;20190;-67
2022/07/19 05:33:27;;;;;;;6.00;2.08;;;26.40;61.10;;;;;;5053470;28;20516;-68
2022/07/19 05:35:53;;;;;;;2.67;2.10;;;26.80;59.70;;;;;;5051816;28;20239;-67
2022/07/19 05:38:18;;;;;;;4.32;2.13;;;27.30;58.70;;;;;;5052917;28;20177;-68
2022/07/19 05:40:44;;;;;;;2.40;2.00;;;27.70;57.90;;;;;;5051542;28;20280;-67
2022/07/19 05:43:10;;;;;;;4.70;2.10;;;28.20;57.00;;;;;;5052929;28;20185;-69
2022/07/19 05:45:35;;;;;;;5.95;2.03;;;28.50;56.30;;;;;;5052416;28;20177;-70
2022/07/19 05:48:01;;;;;;;3.42;2.17;;;28.90;55.40;;;;;;5051694;28;20177;-70
2022/07/19 05:50:26;;;;;;;5.30;2.35;;;29.20;54.60;;;;;;5051082;28;20185;-70
2022/07/19 05:52:52;;;;;;;3.60;1.98;;;29.60;54.30;;;;;;5052684;28;20181;-70
2022/07/19 05:55:17;;;;;;;2.33;1.90;;;29.90;53.30;;;;;;5052549;28;20268;-70
2022/07/19 05:57:43;;;;;;;4.30;2.00;;;30.20;53.10;;;;;;5053087;28;20177;-69
2022/07/19 06:00:09;;;;;;;2.90;2.10;;;30.60;52.20;;;;;;5052483;28;20185;-69
2022/07/19 06:02:34;;;;;;;2.97;2.00;;;31.10;51.10;;;;;;5052295;28;20181;-73
2022/07/19 06:05:00;;;;;;;3.53;2.13;;;31.50;50.70;;;;;;5054120;28;20200;-70
2022/07/19 06:07:25;;;;;;;5.22;2.00;;;32.00;49.80;;;;;;5062972;28;20505;-70
2022/07/19 06:09:51;;;;;;;4.93;2.10;;;32.50;49.00;;;;;;5052539;28;20186;-70
2022/07/19 06:12:16;;;;;;;6.47;1.92;;;33.00;48.10;;;;;;5052568;28;20189;-70
2022/07/19 06:14:42;;;;;;;2.70;2.15;;;33.60;47.20;;;;;;5052609;28;20173;-71
2022/07/19 06:17:08;;;;;;;3.92;1.90;;;33.90;45.30;;;;;;5051891;28;20205;-70
2022/07/19 06:19:33;;;;;;;5.97;2.00;;;34.10;45.20;;;;;;5052499;28;20750;-71
2022/07/19 06:21:59;;;;;;;4.63;1.80;;;34.40;44.80;;;;;;5052080;28;20315;-71
2022/07/19 06:24:24;;;;;;;3.55;2.15;;;34.70;45.20;;;;;;5052261;28;20264;-71
2022/07/19 06:26:50;;;;;;;4.10;1.92;;;35.20;44.00;;;;;;5052551;28;20164;-71
2022/07/19 06:29:15;;;;;;;4.32;2.28;;;35.60;43.10;;;;;;5052032;28;20173;-71
2022/07/19 06:31:41;;;;;;;3.05;2.25;;;36.10;42.50;;;;;;5052127;28;20242;-71
2022/07/19 06:34:06;;;;;;;1.95;1.80;;;36.60;41.70;;;;;;5052070;28;20184;-70
2022/07/19 06:36:32;;;;;;;3.65;2.13;;;37.20;40.90;;;;;;5051294;28;20208;-71
2022/07/19 06:38:57;;;;;;;3.13;1.80;;;37.60;39.90;;;;;;5052116;28;20204;-72
2022/07/19 06:41:23;;;;;;;1.95;1.80;;;38.10;39.50;;;;;;5050822;28;20181;-71
2022/07/19 06:43:48;;;;;;;2.47;1.90;;;38.50;39.10;;;;;;5051711;28;20176;-71
2022/07/19 06:46:14;;;;;;;1.80;1.70;;;38.80;38.50;;;;;;5050886;28;20219;-71
2022/07/19 06:48:39;;;;;;;1.73;1.60;;;39.10;38.70;;;;;;5051902;28;20267;-71
2022/07/19 06:51:07;;;;;;;4.38;2.10;;;39.30;38.00;;;;;;5052002;28;20180;-71
2022/07/19 06:53:32;;;;;;;3.72;1.90;;;39.40;37.20;;;;;;5051532;28;20181;-71
2022/07/19 06:55:58;;;;;;;2.13;1.52;;;39.70;36.90;;;;;;5051883;28;20250;-71
2022/07/19 06:58:23;;;;;;;2.85;1.70;;;40.00;36.70;;;;;;5051837;28;20188;-70
2022/07/19 07:00:49;;;;;;;4.03;1.50;;;40.30;35.80;;;;;;5051741;28;20187;-71
2022/07/19 07:03:17;;;;;;;2.22;1.60;;;40.60;35.90;;;;;;5051739;28;20194;-71
2022/07/19 07:05:43;;;;;;;2.05;1.70;;;40.80;35.30;;;;;;5051832;28;20189;-71
2022/07/19 07:08:08;;;;;;;2.78;1.85;;;40.90;34.90;;;;;;5051667;28;20191;-71
2022/07/19 07:10:34;;;;;;;3.75;2.00;;;41.20;34.90;;;;;;5051794;28;20269;-71
2022/07/19 07:12:59;;;;;;;4.05;1.83;;;41.30;33.90;;;;;;5051661;28;20176;-71
2022/07/19 07:15:25;;;;;;;6.07;1.80;;;41.20;33.60;;;;;;5051611;28;20956;-71
2022/07/19 07:17:50;;;;;;;5.60;1.80;;;41.20;33.60;;;;;;5051601;28;20263;-71
2022/07/19 07:20:16;;;;;;;6.07;1.85;;;41.40;33.60;;;;;;5051614;28;20176;-70
2022/07/19 07:22:41;;;;;;;2.83;1.75;;;41.70;33.70;;;;;;5051506;28;20812;-71
2022/07/19 07:25:08;;;;;;;4.07;1.90;;;41.80;33.70;;;;;;5051438;28;20183;-71
2022/07/19 07:27:33;;;;;;;2.53;2.13;;;42.00;32.90;;;;;;5051533;28;20228;-71
2022/07/19 07:29:59;;;;;;;2.63;1.60;;;41.80;33.30;;;;;;5051700;28;20268;-71
2022/07/19 07:32:26;;;;;;;4.40;1.95;;;41.80;33.40;;;;;;5051401;28;20173;-71
2022/07/19 07:34:52;;;;;;;2.30;1.88;;;42.00;33.20;;;;;;5051607;28;20164;-71
2022/07/19 07:37:18;;;;;;;3.13;1.80;;;42.00;33.30;;;;;;5051369;28;20710;-71
2022/07/19 07:39:43;;;;;;;5.72;2.22;;;42.00;32.50;;;;;;5051528;28;20165;-71
2022/07/19 07:42:09;;;;;;;3.08;1.80;;;42.10;32.40;;;;;;5051336;28;20180;-71
2022/07/19 07:44:34;;;;;;;4.32;1.92;;;42.30;32.50;;;;;;5051400;28;20183;-71
2022/07/19 07:47:00;;;;;;;3.47;1.77;;;42.40;32.30;;;;;;5051288;28;20183;-71
2022/07/19 07:49:26;;;;;;;2.60;1.80;;;42.40;32.30;;;;;;5051276;28;20184;-70
2022/07/19 07:51:52;;;;;;;3.22;1.73;;;42.40;32.30;;;;;;5046804;28;20276;-70
2022/07/19 07:54:17;;;;;;;2.67;1.80;;;42.30;32.40;;;;;;5031280;28;20166;-70
2022/07/19 07:56:43;;;;;;;3.35;1.80;;;42.20;32.10;;;;;;5031380;28;20221;-70
2022/07/19 07:59:08;;;;;;;2.60;1.70;;;42.00;32.40;;;;;;5039310;28;20268;-71
2022/07/19 08:01:34;;;;;;;4.03;1.90;;;41.70;32.60;;;;;;5055173;28;20628;-71
2022/07/19 08:04:00;;;;;;;4.03;1.65;;;41.70;32.40;;;;;;5055205;28;20188;-71
2022/07/19 08:06:26;;;;;;;3.63;1.80;;;41.70;32.30;;;;;;5054765;28;20212;-70
2022/07/19 08:08:51;;;;;;;3.70;1.80;;;41.70;32.60;;;;;;5055137;28;20173;-70
2022/07/19 08:11:17;;;;;;;4.63;1.83;;;41.80;31.70;;;;;;5054958;28;20180;-71
2022/07/19 08:13:43;;;;;;;2.15;1.48;;;41.70;30.20;;;;;;5054953;28;20505;-71
2022/07/19 08:16:08;;;;;;;1.70;1.60;;;41.60;30.00;;;;;;5054749;28;20547;-70
2022/07/19 08:18:34;;;;;;;1.90;1.80;;;41.50;29.90;;;;;;5054817;28;20185;-71
2022/07/19 08:20:59;;;;;;;2.97;1.40;;;41.60;31.30;;;;;;5054684;28;20217;-72
2022/07/19 08:23:25;;;;;;;2.15;1.50;;;41.60;31.20;;;;;;5054690;28;20185;-71
2022/07/19 08:25:51;;;;;;;2.17;1.48;;;41.50;30.20;;;;;;5054650;28;20208;-71
2022/07/19 08:28:16;;;;;;;2.90;1.58;;;41.60;30.20;;;;;;5054622;28;20177;-71
2022/07/19 08:30:42;;;;;;;1.77;1.67;;;41.50;30.00;;;;;;5054734;28;20184;-71
2022/07/19 08:33:08;;;;;;;4.65;1.77;;;41.30;31.80;;;;;;5054453;28;20169;-70
2022/07/19 08:35:35;;;;;;;1.88;1.50;;;41.50;30.60;;;;;;5054588;28;20177;-71
2022/07/19 08:38:01;;;;;;;1.48;1.38;;;41.80;30.10;;;;;;5054492;28;20181;-72
2022/07/19 08:40:26;;;;;;;3.55;1.73;;;41.90;29.80;;;;;;5054264;28;20200;-70
2022/07/19 08:42:53;;;;;;;1.80;1.65;;;41.90;30.40;;;;;;5054506;28;20169;-71
2022/07/19 08:45:22;;;;;;;1.50;1.40;;;41.80;30.50;;;;;;5054166;28;20172;-70
2022/07/19 08:47:48;;;;;;;3.38;1.60;;;41.70;29.50;;;;;;5054079;28;20523;-72
2022/07/19 08:50:14;;;;;;;2.08;1.58;;;41.50;29.70;;;;;;5054171;28;20173;-71
2022/07/19 08:52:40;;;;;;;3.15;1.50;;;41.40;31.20;;;;;;5054186;28;20180;-70
2022/07/19 08:55:06;;;;;;;3.97;1.88;;;41.30;29.90;;;;;;5054028;28;20203;-70
2022/07/19 09:00:17;;;;;;;5.00;1.60;;;40.80;30.90;;;;;;5054014;28;20240;-71
2022/07/19 09:03:01;;;;;;;1.95;1.73;;;40.80;32.00;;;;;;5054078;28;20536;-71
2022/07/19 09:05:27;;;;;;;4.53;1.88;;;40.70;32.20;;;;;;5053715;28;20195;-71
2022/07/19 09:08:02;;;;;;;2.15;1.55;;;40.50;32.00;;;;;;5053957;28;20183;-71
2022/07/19 09:10:28;;;;;;;2.72;1.70;;;40.50;32.50;;;;;;5053512;28;20254;-71
2022/07/19 09:13:03;;;;;;;7.88;2.22;;;40.70;32.90;;;;;;5053830;28;20205;-71
2022/07/19 09:15:50;;;;;;;1.50;1.40;;;40.80;31.00;;;;;;5053771;28;20318;-71
2022/07/19 09:18:19;;;;;;;1.77;1.65;;;40.50;32.40;;;;;;5053617;28;20215;-70
2022/07/19 09:20:46;;;;;;;2.10;1.60;;;40.50;31.40;;;;;;5053396;28;20606;-70
2022/07/19 09:23:12;;;;;;;2.88;1.60;;;40.60;32.10;;;;;;5053593;28;20169;-70
2022/07/19 09:25:40;;;;;;;4.10;1.63;;;40.50;31.40;;;;;;5053502;28;20216;-71
2022/07/19 09:28:07;;;;;;;2.60;1.67;;;40.50;30.00;;;;;;5053294;28;20299;-70
2022/07/19 09:30:36;;;;;;;2.97;1.58;;;40.50;29.50;;;;;;5053557;28;20177;-70
2022/07/19 09:33:27;;;;;;;2.08;1.48;;;40.00;29.80;;;;;;5053370;28;20177;-71
2022/07/19 09:35:58;;;;;;;3.45;1.52;;;39.80;30.40;;;;;;5053121;28;20197;-71
2022/07/19 09:38:31;;;;;;;1.90;1.73;;;39.90;31.50;;;;;;5053439;28;20184;-70
2022/07/19 09:41:06;;;;;;;1.85;1.50;;;40.00;31.80;;;;;;5053300;28;20177;-71
2022/07/19 09:43:47;;;;;;;1.63;1.40;;;40.10;31.10;;;;;;5053193;28;20180;-70
2022/07/19 09:46:36;;;;;;;1.75;1.52;;;40.30;30.00;;;;;;5053088;28;20615;-71
2022/07/19 09:49:21;;;;;;;2.97;1.70;;;40.20;29.40;;;;;;5053107;28;20211;-70
2022/07/19 09:51:52;;;;;;;2.17;1.77;;;39.90;30.60;;;;;;5052962;28;20176;-70
2022/07/19 09:54:20;;;;;;;2.63;1.70;;;39.90;30.50;;;;;;5053140;28;20200;-70
2022/07/19 09:56:48;;;;;;;2.92;1.50;;;40.00;30.10;;;;;;5052924;28;20177;-70
2022/07/19 09:59:14;;;;;;;2.28;1.70;;;39.70;29.80;;;;;;5052816;28;20722;-70
2022/07/19 10:01:40;;;;;;;6.55;1.80;;;39.60;30.90;;;;;;5052948;28;20292;-70
2022/07/19 10:04:11;;;;;;;5.05;1.60;;;39.70;30.00;;;;;;5052700;28;20204;-69
2022/07/19 10:06:38;;;;;;;3.25;1.60;;;39.30;30.00;;;;;;5052712;28;20212;-70
2022/07/19 10:09:05;;;;;;;1.50;1.40;;;38.90;30.50;;;;;;5052726;28;20544;-70
2022/07/19 10:11:31;;;;;;;2.08;1.70;;;38.50;30.20;;;;;;5052739;28;20589;-70
2022/07/19 10:13:57;;;;;;;2.13;1.48;;;38.60;32.80;;;;;;5052712;28;20185;-70
2022/07/19 10:16:46;;;;;;;2.88;1.60;;;38.80;31.20;;;;;;5052570;28;20642;-70
2022/07/19 10:19:38;;;;;;;3.75;1.67;;;38.90;31.70;;;;;;5052562;28;20563;-70
2022/07/19 10:22:05;;;;;;;2.08;1.50;;;38.90;30.70;;;;;;5051778;28;20229;-69
2022/07/19 10:24:51;;;;;;;1.73;1.60;;;39.00;30.80;;;;;;5052465;28;20253;-69
2022/07/19 10:27:39;;;;;;;1.70;1.60;;;39.10;30.90;;;;;;5052331;28;20220;-70
2022/07/19 10:30:07;;;;;;;3.47;1.50;;;39.10;29.70;;;;;;5052213;28;20255;-70
2022/07/19 10:32:33;;;;;;;2.00;1.33;;;39.20;30.40;;;;;;5052294;28;20215;-70
2022/07/19 10:35:29;;;;;;;3.58;1.50;;;39.30;31.40;;;;;;5052295;28;20196;-70
2022/07/19 10:38:01;;;;;;;3.95;1.55;;;39.30;31.20;;;;;;5046535;28;20181;-69
2022/07/19 10:40:43;;;;;;;1.95;1.65;;;39.40;30.70;;;;;;5052045;28;20679;-70
2022/07/19 10:43:13;;;;;;;2.88;1.50;;;39.70;30.40;;;;;;5052097;28;20181;-69
2022/07/19 10:45:41;;;;;;;1.33;1.30;;;39.80;30.30;;;;;;5052051;28;20200;-70
2022/07/19 10:48:13;;;;;;;4.05;1.67;;;39.90;29.60;;;;;;5051813;28;20665;-69
2022/07/19 10:50:54;;;;;;;2.83;1.58;;;39.90;30.00;;;;;;5052077;28;20172;-69
2022/07/19 10:53:41;;;;;;;3.03;1.60;;;40.10;30.60;;;;;;5051881;28;20203;-69
2022/07/19 10:56:24;;;;;;;4.28;1.40;;;40.00;29.70;;;;;;5051762;28;20184;-69
2022/07/19 10:59:01;;;;;;;1.80;1.42;;;40.00;30.20;;;;;;5051600;28;20165;-70
2022/07/19 11:01:29;;;;;;;1.40;1.30;;;40.00;30.00;;;;;;5051689;28;20177;-69
2022/07/19 11:04:28;;;;;;;2.92;1.73;;;40.00;29.90;;;;;;5051816;28;20169;-69
2022/07/19 11:07:18;;;;;;;3.13;1.65;;;40.10;30.30;;;;;;5051850;28;20219;-69
2022/07/19 11:09:47;;;;;;;2.40;1.75;;;40.10;29.80;;;;;;5051837;28;20176;-69
2022/07/19 11:12:27;;;;;;;2.40;1.80;;;40.20;30.00;;;;;;5051766;28;20188;-69
2022/07/19 11:14:53;;;;;;;6.68;1.70;;;39.90;29.60;;;;;;5051754;28;20172;-69
2022/07/19 11:17:19;;;;;;;2.17;1.60;;;39.60;30.00;;;;;;5051571;28;20589;-69
2022/07/19 11:20:22;;;;;;;3.22;1.52;;;39.40;29.90;;;;;;5051790;28;20176;-69
2022/07/19 11:22:48;;;;;;;2.47;1.73;;;39.30;30.40;;;;;;5049014;28;20686;-68
2022/07/19 11:25:15;;;;;;;4.50;1.70;;;39.20;29.90;;;;;;5050871;28;20267;-68
2022/07/19 11:27:47;;;;;;;2.17;1.42;;;39.20;30.00;;;;;;5050446;28;20192;-69
2022/07/19 11:30:15;;;;;;;3.92;1.77;;;39.50;29.80;;;;;;5051451;28;20295;-69
2022/07/19 11:32:42;;;;;;;1.90;1.67;;;39.70;29.30;;;;;;5051757;28;20218;-69
2022/07/19 11:35:11;;;;;;;1.98;1.88;;;39.70;29.00;;;;;;5055451;28;20200;-69
2022/07/19 11:37:41;;;;;;;1.75;1.60;;;39.50;29.40;;;;;;5055661;28;20179;-69
2022/07/19 11:40:09;;;;;;;1.90;1.70;;;39.50;29.80;;;;;;5055462;28;20173;-69
2022/07/19 11:42:43;;;;;;;3.88;2.13;;;39.70;29.40;;;;;;5055615;28;20258;-70
2022/07/19 11:45:17;;;;;;;2.10;1.70;;;39.90;29.70;;;;;;5055295;28;20518;-69
2022/07/19 11:47:55;;;;;;;1.48;1.38;;;39.90;28.80;;;;;;5055492;28;20835;-69
2022/07/19 11:50:24;;;;;;;7.47;1.60;;;39.90;28.10;;;;;;5055402;28;20177;-69
2022/07/19 11:52:58;;;;;;;6.43;2.10;;;39.80;28.00;;;;;;5055221;28;20185;-68
2022/07/19 11:55:29;;;;;;;4.25;1.85;;;39.70;28.50;;;;;;5055207;28;20219;-69
2022/07/19 11:57:56;;;;;;;5.30;1.77;;;39.60;28.10;;;;;;5055351;28;20544;-69
2022/07/19 12:00:21;;;;;;;5.93;1.90;;;39.90;29.00;;;;;;5055069;28;20256;-66
2022/07/19 12:03:04;;;;;;;5.72;1.67;;;40.10;27.70;;;;;;5054999;28;20295;-67
2022/07/19 12:05:36;;;;;;;3.03;1.80;;;39.90;27.20;;;;;;5055000;28;20180;-66
2022/07/19 12:08:03;;;;;;;3.30;1.92;;;39.90;27.50;;;;;;5055017;28;20202;-68
2022/07/19 12:10:34;;;;;;;4.00;1.73;;;39.90;27.80;;;;;;5054875;28;20188;-69
2022/07/19 12:13:00;;;;;;;1.83;1.60;;;39.90;28.50;;;;;;5053872;28;20176;-70
2022/07/19 12:15:26;;;;;;;3.20;1.95;;;39.70;27.30;;;;;;5054741;28;20181;-68
2022/07/19 12:17:57;;;;;;;1.88;1.77;;;39.70;27.60;;;;;;5054932;28;20199;-69
2022/07/19 12:20:23;;;;;;;2.55;1.80;;;39.80;28.00;;;;;;5054903;28;20181;-69
2022/07/19 12:22:51;;;;;;;5.53;2.22;;;39.90;27.50;;;;;;5054521;28;20230;-68
2022/07/19 12:25:35;;;;;;;1.70;1.60;;;40.00;27.80;;;;;;5054617;28;20377;-68
2022/07/19 12:28:01;;;;;;;2.55;1.98;;;39.90;27.30;;;;;;5054697;28;20184;-69
2022/07/19 12:30:28;;;;;;;4.50;1.98;;;39.80;28.00;;;;;;5054466;28;20279;-69
2022/07/19 12:33:04;;;;;;;2.85;1.90;;;39.70;28.20;;;;;;5054657;28;20267;-69
2022/07/19 12:35:42;;;;;;;2.50;1.90;;;39.70;28.20;;;;;;5054650;28;20534;-69
2022/07/19 12:38:09;;;;;;;3.47;1.80;;;39.80;27.50;;;;;;5054405;28;20219;-68
2022/07/19 12:40:35;;;;;;;2.58;1.98;;;39.80;27.50;;;;;;5054556;28;20181;-68
2022/07/19 12:43:02;;;;;;;4.28;2.05;;;39.90;28.10;;;;;;5054480;28;20257;-69
2022/07/19 12:45:33;;;;;;;4.30;2.10;;;39.90;27.20;;;;;;5053517;28;20181;-68
2022/07/19 12:47:59;;;;;;;5.63;2.50;;;39.80;28.00;;;;;;5054348;28;20185;-69
2022/07/19 12:50:28;;;;;;;2.33;1.92;;;39.90;27.80;;;;;;5054183;28;20252;-69
2022/07/19 12:52:56;;;;;;;2.35;2.00;;;39.80;26.80;;;;;;5054164;28;20235;-69